sensor_id;sensor_type;location;lat;lon;timestamp;pressure;altitude;pressure_sealevel;temperature;humidity
25232;BME280;13176;51.140;6.290;2023-05-22T00:00:09;100649.53;;;22.99;68.13
25232;BME280;13176;51.140;6.290;2023-05-22T00:02:38;100645.25;;;23.10;67.50
25232;BME280;13176;51.140;6.290;2023-05-22T00:05:13;100710.69;;;23.40;67.33
25232;BME280;13176;51.140;6.290;2023-05-22T00:07:40;100571.00;;;22.65;66.98
25232;BME280;13176;51.140;6.290;2023-05-22T00:10:09;100679.25;;;23.19;67.23
25232;BME280;13176;51.140;6.290;2023-05-22T00:12:36;100700.63;;;23.31;67.35
25232;BME280;13176;51.140;6.290;2023-05-22T00:15:03;100687.44;;;23.16;67.32
25232;BME280;13176;51.140;6.290;2023-05-22T00:17:29;100680.03;;;23.07;67.36
25232;BME280;13176;51.140;6.290;2023-05-22T00:19:56;100680.41;;;23.01;67.67
25232;BME280;13176;51.140;6.290;2023-05-22T00:22:29;100663.16;;;22.94;67.74
25232;BME280;13176;51.140;6.290;2023-05-22T00:24:57;100668.63;;;23.05;66.96
25232;BME280;13176;51.140;6.290;2023-05-22T00:27:23;100674.91;;;23.04;67.28
25232;BME280;13176;51.140;6.290;2023-05-22T00:29:50;100681.75;;;23.08;67.51
25232;BME280;13176;51.140;6.290;2023-05-22T00:32:16;100679.66;;;23.13;67.20
25232;BME280;13176;51.140;6.290;2023-05-22T00:34:42;100556.06;;;22.50;66.64
25232;BME280;13176;51.140;6.290;2023-05-22T00:37:09;100660.47;;;23.08;66.90
25232;BME280;13176;51.140;6.290;2023-05-22T00:39:36;100646.00;;;22.98;66.41
25232;BME280;13176;51.140;6.290;2023-05-22T00:42:02;100642.63;;;22.82;66.68
25232;BME280;13176;51.140;6.290;2023-05-22T00:44:29;100654.06;;;22.70;67.55
25232;BME280;13176;51.140;6.290;2023-05-22T00:46:55;100652.47;;;22.54;67.76
25232;BME280;13176;51.140;6.290;2023-05-22T00:49:22;100541.88;;;21.95;68.74
25232;BME280;13176;51.140;6.290;2023-05-22T00:51:49;100658.06;;;22.63;68.48
25232;BME280;13176;51.140;6.290;2023-05-22T00:54:15;100664.53;;;22.73;67.97
25232;BME280;13176;51.140;6.290;2023-05-22T00:56:42;100638.53;;;22.50;67.63
25232;BME280;13176;51.140;6.290;2023-05-22T00:59:09;100639.09;;;22.41;67.91
25232;BME280;13176;51.140;6.290;2023-05-22T01:01:35;100666.47;;;22.43;68.44
25232;BME280;13176;51.140;6.290;2023-05-22T01:04:11;100675.97;;;22.47;68.53
25232;BME280;13176;51.140;6.290;2023-05-22T01:06:38;100625.22;;;22.08;68.49
25232;BME280;13176;51.140;6.290;2023-05-22T01:09:06;100658.81;;;22.23;69.25
25232;BME280;13176;51.140;6.290;2023-05-22T01:14:39;100674.78;;;22.23;69.41
25232;BME280;13176;51.140;6.290;2023-05-22T01:17:18;100601.31;;;21.81;69.30
25232;BME280;13176;51.140;6.290;2023-05-22T01:31:16;100655.22;;;22.24;68.93
25232;BME280;13176;51.140;6.290;2023-05-22T01:33:47;100627.88;;;22.08;68.71
25232;BME280;13176;51.140;6.290;2023-05-22T01:36:17;100628.06;;;22.05;69.17
25232;BME280;13176;51.140;6.290;2023-05-22T01:38:45;100667.75;;;22.22;69.20
25232;BME280;13176;51.140;6.290;2023-05-22T01:41:12;100658.63;;;22.26;69.47
25232;BME280;13176;51.140;6.290;2023-05-22T01:43:40;100666.94;;;22.50;69.67
25232;BME280;13176;51.140;6.290;2023-05-22T01:46:06;100626.44;;;22.17;69.11
25232;BME280;13176;51.140;6.290;2023-05-22T01:48:34;100561.97;;;21.86;69.34
25232;BME280;13176;51.140;6.290;2023-05-22T01:51:06;100662.28;;;22.39;68.91
25232;BME280;13176;51.140;6.290;2023-05-22T01:53:44;100644.41;;;22.13;69.48
25232;BME280;13176;51.140;6.290;2023-05-22T01:56:15;100650.28;;;22.04;70.01
25232;BME280;13176;51.140;6.290;2023-05-22T01:58:55;100677.63;;;22.06;70.34
25232;BME280;13176;51.140;6.290;2023-05-22T02:01:28;100648.72;;;21.87;71.51
25232;BME280;13176;51.140;6.290;2023-05-22T02:03:57;100639.13;;;21.70;71.82
25232;BME280;13176;51.140;6.290;2023-05-22T02:06:25;100627.25;;;21.62;71.17
25232;BME280;13176;51.140;6.290;2023-05-22T02:08:54;100667.72;;;21.81;71.00
25232;BME280;13176;51.140;6.290;2023-05-22T02:11:23;100578.06;;;21.11;71.81
25232;BME280;13176;51.140;6.290;2023-05-22T02:13:52;100639.78;;;21.44;71.80
25232;BME280;13176;51.140;6.290;2023-05-22T02:16:18;100636.25;;;21.30;72.46
25232;BME280;13176;51.140;6.290;2023-05-22T02:18:47;100644.81;;;21.35;73.22
25232;BME280;13176;51.140;6.290;2023-05-22T02:21:13;100634.88;;;21.23;72.78
25232;BME280;13176;51.140;6.290;2023-05-22T02:23:40;100639.19;;;21.25;72.76
25232;BME280;13176;51.140;6.290;2023-05-22T02:26:06;100632.03;;;21.12;73.34
25232;BME280;13176;51.140;6.290;2023-05-22T02:28:33;100663.31;;;21.21;74.39
25232;BME280;13176;51.140;6.290;2023-05-22T02:30:59;100521.16;;;20.26;74.32
25232;BME280;13176;51.140;6.290;2023-05-22T02:33:27;100638.88;;;21.00;74.98
25232;BME280;13176;51.140;6.290;2023-05-22T02:35:55;100643.16;;;21.03;74.93
25232;BME280;13176;51.140;6.290;2023-05-22T02:38:21;100666.28;;;21.01;75.81
25232;BME280;13176;51.140;6.290;2023-05-22T02:40:47;100532.81;;;20.23;75.64
25232;BME280;13176;51.140;6.290;2023-05-22T02:43:14;100648.72;;;20.83;76.69
25232;BME280;13176;51.140;6.290;2023-05-22T02:45:41;100656.50;;;20.86;76.80
25232;BME280;13176;51.140;6.290;2023-05-22T02:48:07;100656.25;;;20.75;77.22
25232;BME280;13176;51.140;6.290;2023-05-22T02:50:34;100644.34;;;20.67;77.64
25232;BME280;13176;51.140;6.290;2023-05-22T02:53:00;100651.00;;;20.73;77.47
25232;BME280;13176;51.140;6.290;2023-05-22T02:55:26;100645.03;;;20.70;77.76
25232;BME280;13176;51.140;6.290;2023-05-22T02:57:53;100658.91;;;20.75;78.64
25232;BME280;13176;51.140;6.290;2023-05-22T03:00:19;100655.97;;;20.64;78.53
25232;BME280;13176;51.140;6.290;2023-05-22T03:02:47;100633.72;;;20.51;78.81
25232;BME280;13176;51.140;6.290;2023-05-22T03:05:14;100632.19;;;20.47;79.11
25232;BME280;13176;51.140;6.290;2023-05-22T03:07:43;100645.25;;;20.50;79.02
25232;BME280;13176;51.140;6.290;2023-05-22T03:10:13;100519.88;;;19.69;79.36
25232;BME280;13176;51.140;6.290;2023-05-22T03:12:40;100621.97;;;20.24;79.48
25232;BME280;13176;51.140;6.290;2023-05-22T03:15:07;100647.38;;;20.28;80.39
25232;BME280;13176;51.140;6.290;2023-05-22T03:17:33;100642.25;;;20.25;79.59
25232;BME280;13176;51.140;6.290;2023-05-22T03:20:00;100636.06;;;20.09;81.13
25232;BME280;13176;51.140;6.290;2023-05-22T03:22:26;100638.06;;;20.21;79.70
25232;BME280;13176;51.140;6.290;2023-05-22T03:24:53;100648.75;;;20.20;80.92
25232;BME280;13176;51.140;6.290;2023-05-22T03:27:19;100558.81;;;19.67;79.98
25232;BME280;13176;51.140;6.290;2023-05-22T03:29:46;100567.22;;;19.75;80.22
25232;BME280;13176;51.140;6.290;2023-05-22T03:32:12;100645.50;;;20.15;80.51
25232;BME280;13176;51.140;6.290;2023-05-22T03:34:39;100641.03;;;20.15;80.38
25232;BME280;13176;51.140;6.290;2023-05-22T03:37:06;100607.09;;;19.89;81.02
25232;BME280;13176;51.140;6.290;2023-05-22T03:39:34;100633.13;;;19.98;81.02
25232;BME280;13176;51.140;6.290;2023-05-22T03:42:01;100642.28;;;20.08;81.03
25232;BME280;13176;51.140;6.290;2023-05-22T03:44:27;100619.25;;;19.93;81.21
25232;BME280;13176;51.140;6.290;2023-05-22T03:46:54;100651.53;;;20.01;81.21
25232;BME280;13176;51.140;6.290;2023-05-22T03:49:20;100662.38;;;20.12;81.11
25232;BME280;13176;51.140;6.290;2023-05-22T03:51:46;100632.09;;;20.01;81.46
25232;BME280;13176;51.140;6.290;2023-05-22T03:54:13;100634.84;;;19.99;80.99
25232;BME280;13176;51.140;6.290;2023-05-22T03:56:39;100660.34;;;20.17;80.78
25232;BME280;13176;51.140;6.290;2023-05-22T03:59:06;100680.56;;;20.20;81.49
25232;BME280;13176;51.140;6.290;2023-05-22T04:01:32;100658.97;;;20.10;81.46
25232;BME280;13176;51.140;6.290;2023-05-22T04:03:59;100589.75;;;19.67;81.29
25232;BME280;13176;51.140;6.290;2023-05-22T04:06:26;100646.66;;;20.09;80.51
25232;BME280;13176;51.140;6.290;2023-05-22T04:08:52;100651.44;;;20.03;80.99
25232;BME280;13176;51.140;6.290;2023-05-22T04:11:18;100658.28;;;20.07;81.23
25232;BME280;13176;51.140;6.290;2023-05-22T04:13:48;100681.88;;;20.11;81.50
25232;BME280;13176;51.140;6.290;2023-05-22T04:16:14;100661.19;;;20.02;80.92
25232;BME280;13176;51.140;6.290;2023-05-22T04:18:42;100655.88;;;20.02;81.30
25232;BME280;13176;51.140;6.290;2023-05-22T04:21:09;100580.78;;;19.37;82.15
25232;BME280;13176;51.140;6.290;2023-05-22T04:23:36;100658.34;;;19.88;81.89
25232;BME280;13176;51.140;6.290;2023-05-22T04:26:03;100653.38;;;19.82;82.32
25232;BME280;13176;51.140;6.290;2023-05-22T04:28:30;100645.03;;;19.90;82.18
25232;BME280;13176;51.140;6.290;2023-05-22T04:30:56;100662.88;;;20.03;82.22
25232;BME280;13176;51.140;6.290;2023-05-22T04:33:23;100627.97;;;19.78;82.00
25232;BME280;13176;51.140;6.290;2023-05-22T04:35:54;100567.84;;;19.48;81.94
25232;BME280;13176;51.140;6.290;2023-05-22T04:38:20;100661.47;;;19.96;82.60
25232;BME280;13176;51.140;6.290;2023-05-22T04:40:47;100677.09;;;20.02;83.04
25232;BME280;13176;51.140;6.290;2023-05-22T04:43:13;100674.59;;;19.99;83.33
25232;BME280;13176;51.140;6.290;2023-05-22T04:45:39;100667.25;;;19.87;83.58
25232;BME280;13176;51.140;6.290;2023-05-22T04:48:07;100666.94;;;19.93;83.95
25232;BME280;13176;51.140;6.290;2023-05-22T04:50:34;100666.63;;;19.82;84.88
25232;BME280;13176;51.140;6.290;2023-05-22T04:53:01;100680.47;;;19.70;85.94
25232;BME280;13176;51.140;6.290;2023-05-22T04:55:30;100630.97;;;19.55;85.47
25232;BME280;13176;51.140;6.290;2023-05-22T04:57:59;100659.44;;;19.67;86.22
25232;BME280;13176;51.140;6.290;2023-05-22T05:00:25;100683.59;;;19.78;85.88
25232;BME280;13176;51.140;6.290;2023-05-22T05:02:54;100679.56;;;19.88;85.58
25232;BME280;13176;51.140;6.290;2023-05-22T05:05:20;100691.28;;;20.01;85.31
25232;BME280;13176;51.140;6.290;2023-05-22T05:07:47;100689.19;;;20.06;85.33
25232;BME280;13176;51.140;6.290;2023-05-22T05:10:15;100674.56;;;19.82;85.92
25232;BME280;13176;51.140;6.290;2023-05-22T05:12:42;100675.66;;;19.95;85.92
25232;BME280;13176;51.140;6.290;2023-05-22T05:15:09;100658.50;;;19.85;85.72
25232;BME280;13176;51.140;6.290;2023-05-22T05:17:35;100665.06;;;19.95;85.47
25232;BME280;13176;51.140;6.290;2023-05-22T05:20:03;100681.19;;;20.08;85.35
25232;BME280;13176;51.140;6.290;2023-05-22T05:22:32;100683.91;;;20.06;84.85
25232;BME280;13176;51.140;6.290;2023-05-22T05:24:58;100653.53;;;19.79;85.51
25232;BME280;13176;51.140;6.290;2023-05-22T05:27:25;100687.34;;;19.91;84.74
25232;BME280;13176;51.140;6.290;2023-05-22T05:29:51;100680.47;;;20.04;84.54
25232;BME280;13176;51.140;6.290;2023-05-22T05:35:17;100630.09;;;19.72;84.09
25232;BME280;13176;51.140;6.290;2023-05-22T05:37:51;100585.41;;;19.15;83.54
25232;BME280;13176;51.140;6.290;2023-05-22T05:40:18;100683.91;;;19.89;83.73
25232;BME280;13176;51.140;6.290;2023-05-22T05:42:44;100674.25;;;19.88;83.60
25232;BME280;13176;51.140;6.290;2023-05-22T05:45:12;100710.56;;;20.03;83.39
25232;BME280;13176;51.140;6.290;2023-05-22T05:47:38;100680.63;;;19.67;83.88
25232;BME280;13176;51.140;6.290;2023-05-22T05:50:06;100712.63;;;19.98;84.10
25232;BME280;13176;51.140;6.290;2023-05-22T05:52:32;100696.84;;;19.95;83.89
25232;BME280;13176;51.140;6.290;2023-05-22T05:54:59;100726.00;;;20.12;84.03
25232;BME280;13176;51.140;6.290;2023-05-22T05:57:29;100661.81;;;19.56;83.76
25232;BME280;13176;51.140;6.290;2023-05-22T05:59:56;100672.69;;;19.17;86.20
25232;BME280;13176;51.140;6.290;2023-05-22T06:02:22;100685.38;;;19.27;86.69
25232;BME280;13176;51.140;6.290;2023-05-22T06:04:49;100719.63;;;19.65;85.50
25232;BME280;13176;51.140;6.290;2023-05-22T06:07:16;100702.16;;;19.61;85.20
25232;BME280;13176;51.140;6.290;2023-05-22T06:09:42;100708.06;;;19.50;85.97
25232;BME280;13176;51.140;6.290;2023-05-22T06:12:09;100589.13;;;18.94;85.46
25232;BME280;13176;51.140;6.290;2023-05-22T06:14:38;100697.66;;;19.63;85.51
25232;BME280;13176;51.140;6.290;2023-05-22T06:17:08;100667.91;;;19.58;84.95
25232;BME280;13176;51.140;6.290;2023-05-22T06:19:34;100723.81;;;19.86;85.10
25232;BME280;13176;51.140;6.290;2023-05-22T06:22:01;100694.81;;;19.50;85.81
25232;BME280;13176;51.140;6.290;2023-05-22T06:24:27;100621.38;;;19.19;85.11
25232;BME280;13176;51.140;6.290;2023-05-22T06:26:54;100654.56;;;19.43;85.21
25232;BME280;13176;51.140;6.290;2023-05-22T06:29:20;100712.59;;;19.64;85.43
25232;BME280;13176;51.140;6.290;2023-05-22T06:31:51;100697.47;;;19.83;84.48
25232;BME280;13176;51.140;6.290;2023-05-22T06:34:18;100705.19;;;20.05;83.86
25232;BME280;13176;51.140;6.290;2023-05-22T06:36:48;100705.81;;;20.10;83.42
25232;BME280;13176;51.140;6.290;2023-05-22T06:39:17;100736.13;;;20.21;82.36
25232;BME280;13176;51.140;6.290;2023-05-22T06:41:44;100736.47;;;20.31;82.13
25232;BME280;13176;51.140;6.290;2023-05-22T06:44:10;100716.31;;;20.28;82.76
25232;BME280;13176;51.140;6.290;2023-05-22T06:46:38;100749.16;;;20.41;82.37
25232;BME280;13176;51.140;6.290;2023-05-22T06:49:04;100743.69;;;20.44;81.94
25232;BME280;13176;51.140;6.290;2023-05-22T06:51:31;100632.81;;;19.87;81.99
25232;BME280;13176;51.140;6.290;2023-05-22T06:53:59;100744.22;;;20.35;81.68
25232;BME280;13176;51.140;6.290;2023-05-22T06:56:26;100733.00;;;20.13;82.51
25232;BME280;13176;51.140;6.290;2023-05-22T06:58:52;100751.56;;;20.30;81.85
25232;BME280;13176;51.140;6.290;2023-05-22T07:01:19;100725.34;;;20.24;81.64
25232;BME280;13176;51.140;6.290;2023-05-22T07:03:45;100652.28;;;19.69;82.29
25232;BME280;13176;51.140;6.290;2023-05-22T07:06:12;100738.19;;;20.32;81.48
25232;BME280;13176;51.140;6.290;2023-05-22T07:08:38;100753.13;;;20.17;82.78
25232;BME280;13176;51.140;6.290;2023-05-22T07:11:05;100721.16;;;20.03;82.80
25232;BME280;13176;51.140;6.290;2023-05-22T07:13:32;100715.69;;;20.06;82.40
25232;BME280;13176;51.140;6.290;2023-05-22T07:15:59;100764.97;;;20.10;83.38
25232;BME280;13176;51.140;6.290;2023-05-22T07:18:26;100648.88;;;19.34;83.02
25232;BME280;13176;51.140;6.290;2023-05-22T07:20:52;100756.91;;;19.95;84.02
25232;BME280;13176;51.140;6.290;2023-05-22T07:23:18;100776.44;;;20.11;83.04
25232;BME280;13176;51.140;6.290;2023-05-22T07:25:45;100695.28;;;19.74;82.88
25232;BME280;13176;51.140;6.290;2023-05-22T07:28:11;100762.91;;;19.81;84.57
25232;BME280;13176;51.140;6.290;2023-05-22T07:30:38;100755.59;;;20.03;83.68
25232;BME280;13176;51.140;6.290;2023-05-22T07:33:05;100711.53;;;20.02;82.42
25232;BME280;13176;51.140;6.290;2023-05-22T07:35:32;100772.44;;;20.36;82.21
25232;BME280;13176;51.140;6.290;2023-05-22T07:37:58;100749.75;;;19.97;83.21
25232;BME280;13176;51.140;6.290;2023-05-22T07:40:26;100751.44;;;19.99;82.69
25232;BME280;13176;51.140;6.290;2023-05-22T07:42:52;100710.06;;;19.45;83.38
25232;BME280;13176;51.140;6.290;2023-05-22T07:45:19;100761.38;;;19.94;83.41
25232;BME280;13176;51.140;6.290;2023-05-22T07:47:47;100741.53;;;20.03;82.91
25232;BME280;13176;51.140;6.290;2023-05-22T07:50:13;100771.97;;;20.11;83.41
25232;BME280;13176;51.140;6.290;2023-05-22T07:52:40;100786.63;;;20.35;82.27
25232;BME280;13176;51.140;6.290;2023-05-22T07:55:07;100772.41;;;19.68;84.55
25232;BME280;13176;51.140;6.290;2023-05-22T07:57:33;100768.97;;;19.66;84.38
25232;BME280;13176;51.140;6.290;2023-05-22T08:00:02;100792.47;;;19.55;86.37
25232;BME280;13176;51.140;6.290;2023-05-22T08:02:35;100775.81;;;19.53;85.91
25232;BME280;13176;51.140;6.290;2023-05-22T08:05:02;100725.59;;;19.17;85.91
25232;BME280;13176;51.140;6.290;2023-05-22T08:07:29;100708.44;;;19.59;83.96
25232;BME280;13176;51.140;6.290;2023-05-22T08:10:01;100714.03;;;19.53;83.77
25232;BME280;13176;51.140;6.290;2023-05-22T08:12:27;100729.25;;;19.83;82.97
25232;BME280;13176;51.140;6.290;2023-05-22T08:14:54;100791.88;;;20.20;82.71
25232;BME280;13176;51.140;6.290;2023-05-22T08:17:20;100730.19;;;19.65;83.13
25232;BME280;13176;51.140;6.290;2023-05-22T08:19:47;100771.81;;;19.97;82.88
25232;BME280;13176;51.140;6.290;2023-05-22T08:22:14;100718.19;;;19.58;83.14
25232;BME280;13176;51.140;6.290;2023-05-22T08:24:40;100801.44;;;20.22;82.47
25232;BME280;13176;51.140;6.290;2023-05-22T08:27:06;100785.22;;;19.94;82.32
25232;BME280;13176;51.140;6.290;2023-05-22T08:29:33;100791.78;;;20.21;81.89
25232;BME280;13176;51.140;6.290;2023-05-22T08:32:04;100811.66;;;20.13;82.30
25232;BME280;13176;51.140;6.290;2023-05-22T08:34:31;100797.34;;;20.17;82.03
25232;BME280;13176;51.140;6.290;2023-05-22T08:36:58;100797.41;;;19.98;81.95
25232;BME280;13176;51.140;6.290;2023-05-22T08:39:25;100802.63;;;20.17;81.60
25232;BME280;13176;51.140;6.290;2023-05-22T08:41:51;100721.91;;;19.71;81.82
25232;BME280;13176;51.140;6.290;2023-05-22T08:44:18;100802.63;;;20.17;81.24
25232;BME280;13176;51.140;6.290;2023-05-22T08:46:56;100814.28;;;20.47;80.71
25232;BME280;13176;51.140;6.290;2023-05-22T08:49:25;100764.56;;;19.84;81.52
25232;BME280;13176;51.140;6.290;2023-05-22T08:51:55;100800.97;;;20.31;80.35
25232;BME280;13176;51.140;6.290;2023-05-22T08:54:24;100810.00;;;20.44;80.09
25232;BME280;13176;51.140;6.290;2023-05-22T08:56:52;100702.63;;;19.86;80.00
25232;BME280;13176;51.140;6.290;2023-05-22T08:59:23;100770.06;;;20.47;79.77
25232;BME280;13176;51.140;6.290;2023-05-22T09:01:50;100759.81;;;20.07;80.69
25232;BME280;13176;51.140;6.290;2023-05-22T09:04:18;100805.97;;;20.20;81.37
25232;BME280;13176;51.140;6.290;2023-05-22T09:06:48;100782.28;;;20.00;82.13
25232;BME280;13176;51.140;6.290;2023-05-22T09:09:16;100764.97;;;20.27;80.32
25232;BME280;13176;51.140;6.290;2023-05-22T09:11:43;100799.22;;;20.47;79.73
25232;BME280;13176;51.140;6.290;2023-05-22T09:14:10;100816.22;;;20.43;80.92
25232;BME280;13176;51.140;6.290;2023-05-22T09:16:44;100789.13;;;20.21;80.52
25232;BME280;13176;51.140;6.290;2023-05-22T09:19:12;100760.31;;;19.98;80.29
25232;BME280;13176;51.140;6.290;2023-05-22T09:21:40;100780.97;;;20.58;79.30
25232;BME280;13176;51.140;6.290;2023-05-22T09:24:09;100797.94;;;20.71;78.18
25232;BME280;13176;51.140;6.290;2023-05-22T09:26:39;100819.50;;;20.97;77.90
25232;BME280;13176;51.140;6.290;2023-05-22T09:29:06;100816.34;;;20.74;77.36
25232;BME280;13176;51.140;6.290;2023-05-22T09:31:40;100795.72;;;20.96;76.58
25232;BME280;13176;51.140;6.290;2023-05-22T09:34:09;100824.31;;;21.22;77.05
25232;BME280;13176;51.140;6.290;2023-05-22T09:36:35;100819.88;;;21.22;76.08
25232;BME280;13176;51.140;6.290;2023-05-22T09:39:03;100811.31;;;21.02;76.84
25232;BME280;13176;51.140;6.290;2023-05-22T09:41:33;100732.94;;;20.47;76.52
25232;BME280;13176;51.140;6.290;2023-05-22T09:44:00;100771.50;;;20.20;78.47
25232;BME280;13176;51.140;6.290;2023-05-22T09:46:28;100820.47;;;20.79;77.30
25232;BME280;13176;51.140;6.290;2023-05-22T09:48:54;100739.94;;;20.48;76.59
25232;BME280;13176;51.140;6.290;2023-05-22T09:51:21;100742.16;;;20.40;77.08
25232;BME280;13176;51.140;6.290;2023-05-22T09:53:56;100791.88;;;20.69;76.70
25232;BME280;13176;51.140;6.290;2023-05-22T09:56:27;100746.00;;;20.67;76.05
25232;BME280;13176;51.140;6.290;2023-05-22T09:59:07;100840.09;;;21.25;76.16
25232;BME280;13176;51.140;6.290;2023-05-22T10:01:36;100844.56;;;21.40;75.51
25232;BME280;13176;51.140;6.290;2023-05-22T10:04:04;100814.91;;;21.32;75.21
25232;BME280;13176;51.140;6.290;2023-05-22T10:06:32;100784.75;;;21.02;75.06
25232;BME280;13176;51.140;6.290;2023-05-22T10:09:04;100784.44;;;21.08;75.20
25232;BME280;13176;51.140;6.290;2023-05-22T10:11:38;100788.25;;;21.02;74.86
25232;BME280;13176;51.140;6.290;2023-05-22T10:14:13;100697.03;;;20.57;74.85
25232;BME280;13176;51.140;6.290;2023-05-22T10:16:41;100807.44;;;21.38;74.82
25232;BME280;13176;51.140;6.290;2023-05-22T10:19:11;100774.16;;;21.33;74.66
25232;BME280;13176;51.140;6.290;2023-05-22T10:21:40;100792.28;;;21.56;74.24
25232;BME280;13176;51.140;6.290;2023-05-22T10:24:07;100824.16;;;21.87;73.67
25232;BME280;13176;51.140;6.290;2023-05-22T10:26:35;100742.28;;;21.02;75.00
25232;BME280;13176;51.140;6.290;2023-05-22T10:29:10;100836.34;;;21.60;74.48
25232;BME280;13176;51.140;6.290;2023-05-22T10:31:50;100835.50;;;21.75;74.25
25232;BME280;13176;51.140;6.290;2023-05-22T10:37:54;100737.50;;;20.93;75.51
25232;BME280;13176;51.140;6.290;2023-05-22T10:40:25;100819.72;;;21.41;76.60
25232;BME280;13176;51.140;6.290;2023-05-22T10:43:01;100832.56;;;21.79;75.53
25232;BME280;13176;51.140;6.290;2023-05-22T10:45:29;100779.44;;;21.48;74.65
25232;BME280;13176;51.140;6.290;2023-05-22T10:48:07;100747.84;;;21.44;74.45
25232;BME280;13176;51.140;6.290;2023-05-22T10:50:34;100819.38;;;21.78;74.43
25232;BME280;13176;51.140;6.290;2023-05-22T10:53:26;100835.97;;;21.96;74.85
25232;BME280;13176;51.140;6.290;2023-05-22T10:55:55;100832.00;;;22.03;74.21
25232;BME280;13176;51.140;6.290;2023-05-22T10:58:27;100823.75;;;22.08;74.17
25232;BME280;13176;51.140;6.290;2023-05-22T11:08:56;100717.22;;;21.52;73.95
25232;BME280;13176;51.140;6.290;2023-05-22T11:11:29;100817.81;;;21.89;75.08
25232;BME280;13176;51.140;6.290;2023-05-22T11:14:01;100762.56;;;21.65;74.45
25232;BME280;13176;51.140;6.290;2023-05-22T11:16:32;100811.28;;;22.24;74.57
25232;BME280;13176;51.140;6.290;2023-05-22T11:19:05;100767.56;;;22.14;73.54
25232;BME280;13176;51.140;6.290;2023-05-22T11:21:48;100769.97;;;22.32;72.71
25232;BME280;13176;51.140;6.290;2023-05-22T11:24:15;100770.16;;;22.29;72.54
25232;BME280;13176;51.140;6.290;2023-05-22T11:26:43;100786.56;;;22.51;72.56
25232;BME280;13176;51.140;6.290;2023-05-22T11:29:09;100793.00;;;22.61;72.29
25232;BME280;13176;51.140;6.290;2023-05-22T11:31:36;100808.13;;;22.61;72.07
25232;BME280;13176;51.140;6.290;2023-05-22T11:34:04;100701.94;;;22.28;70.69
25232;BME280;13176;51.140;6.290;2023-05-22T11:36:30;100739.75;;;22.33;70.48
25232;BME280;13176;51.140;6.290;2023-05-22T11:38:58;100797.97;;;22.81;69.95
25232;BME280;13176;51.140;6.290;2023-05-22T11:41:32;100812.06;;;23.11;70.29
25232;BME280;13176;51.140;6.290;2023-05-22T11:43:59;100803.09;;;23.26;69.03
25232;BME280;13176;51.140;6.290;2023-05-22T11:46:26;100788.84;;;23.27;68.77
25232;BME280;13176;51.140;6.290;2023-05-22T11:48:53;100781.63;;;23.68;67.23
25232;BME280;13176;51.140;6.290;2023-05-22T11:51:20;100789.59;;;24.21;65.81
25232;BME280;13176;51.140;6.290;2023-05-22T11:53:46;100731.44;;;24.01;64.25
25232;BME280;13176;51.140;6.290;2023-05-22T11:56:13;100713.41;;;23.92;64.09
25232;BME280;13176;51.140;6.290;2023-05-22T11:58:39;100698.47;;;24.02;65.35
25232;BME280;13176;51.140;6.290;2023-05-22T12:01:06;100704.22;;;24.45;62.83
25232;BME280;13176;51.140;6.290;2023-05-22T12:03:32;100760.38;;;24.81;62.34
25232;BME280;13176;51.140;6.290;2023-05-22T12:06:00;100792.00;;;24.87;60.80
25232;BME280;13176;51.140;6.290;2023-05-22T12:08:27;100794.56;;;25.01;61.13
25232;BME280;13176;51.140;6.290;2023-05-22T12:10:53;100759.69;;;25.15;60.85
25232;BME280;13176;51.140;6.290;2023-05-22T12:13:28;100766.25;;;25.47;60.14
25232;BME280;13176;51.140;6.290;2023-05-22T12:15:58;100779.88;;;25.19;59.50
25232;BME280;13176;51.140;6.290;2023-05-22T12:18:34;100673.59;;;24.99;60.32
25232;BME280;13176;51.140;6.290;2023-05-22T12:21:05;100739.44;;;25.59;59.48
25232;BME280;13176;51.140;6.290;2023-05-22T12:23:31;100775.63;;;25.99;58.16
25232;BME280;13176;51.140;6.290;2023-05-22T12:25:59;100767.28;;;26.15;58.70
25232;BME280;13176;51.140;6.290;2023-05-22T12:28:26;100692.31;;;26.04;59.41
25232;BME280;13176;51.140;6.290;2023-05-22T12:30:54;100761.69;;;26.29;56.02
25232;BME280;13176;51.140;6.290;2023-05-22T12:33:28;100759.88;;;25.84;58.02
25232;BME280;13176;51.140;6.290;2023-05-22T12:35:55;100757.56;;;26.14;57.68
25232;BME280;13176;51.140;6.290;2023-05-22T12:38:25;100775.13;;;26.40;58.11
25232;BME280;13176;51.140;6.290;2023-05-22T12:40:53;100698.50;;;25.70;57.47
25232;BME280;13176;51.140;6.290;2023-05-22T12:43:21;100754.97;;;25.78;57.30
25232;BME280;13176;51.140;6.290;2023-05-22T12:45:48;100725.94;;;25.61;57.15
25232;BME280;13176;51.140;6.290;2023-05-22T12:48:15;100738.00;;;25.90;58.50
25232;BME280;13176;51.140;6.290;2023-05-22T12:50:42;100761.09;;;25.91;57.93
25232;BME280;13176;51.140;6.290;2023-05-22T12:53:09;100756.91;;;26.45;59.17
25232;BME280;13176;51.140;6.290;2023-05-22T12:55:36;100654.75;;;25.71;57.31
25232;BME280;13176;51.140;6.290;2023-05-22T12:58:03;100729.75;;;25.69;57.35
25232;BME280;13176;51.140;6.290;2023-05-22T13:00:30;100739.31;;;26.19;56.29
25232;BME280;13176;51.140;6.290;2023-05-22T13:03:00;100763.19;;;26.33;56.33
25232;BME280;13176;51.140;6.290;2023-05-22T13:05:32;100764.88;;;26.34;56.67
25232;BME280;13176;51.140;6.290;2023-05-22T13:07:59;100674.84;;;26.22;56.95
25232;BME280;13176;51.140;6.290;2023-05-22T13:10:25;100748.75;;;26.46;56.11
25232;BME280;13176;51.140;6.290;2023-05-22T13:12:52;100753.50;;;26.65;57.28
25232;BME280;13176;51.140;6.290;2023-05-22T13:15:18;100705.66;;;26.49;55.73
25232;BME280;13176;51.140;6.290;2023-05-22T13:17:45;100672.88;;;26.24;55.41
25232;BME280;13176;51.140;6.290;2023-05-22T13:20:11;100743.53;;;26.56;56.15
25232;BME280;13176;51.140;6.290;2023-05-22T13:22:39;100744.75;;;26.63;55.73